createdAt,value
2023-05-04T00:02:14.581Z,4.39
2023-05-04T00:04:43.103Z,4.27
2023-05-04T00:07:10.482Z,4.12
2023-05-04T00:09:45.064Z,3.89
2023-05-04T00:12:12.497Z,3.59
2023-05-04T00:14:40.061Z,3.89
2023-05-04T00:17:08.222Z,3.83
2023-05-04T00:19:40.692Z,3.52
2023-05-04T00:22:08.500Z,3.45
2023-05-04T00:24:36.022Z,3.83
2023-05-04T00:27:10.564Z,3.68
2023-05-04T00:29:39.041Z,3.56
2023-05-04T00:32:06.723Z,3.51
2023-05-04T00:34:40.150Z,3.70
2023-05-04T00:37:07.628Z,3.75
2023-05-04T00:39:37.834Z,3.65
2023-05-04T00:42:04.999Z,3.62
2023-05-04T00:44:34.834Z,3.66
2023-05-04T00:47:03.830Z,3.50
2023-05-04T00:49:37.152Z,3.11
2023-05-04T00:52:05.643Z,2.96
2023-05-04T00:54:34.720Z,2.86
2023-05-04T00:57:08.502Z,2.66
2023-05-04T00:59:36.726Z,2.54
2023-05-04T01:02:04.094Z,2.52
2023-05-04T01:04:31.889Z,2.40
2023-05-04T01:07:11.006Z,2.31
2023-05-04T01:09:42.052Z,2.29
2023-05-04T01:12:38.842Z,2.50
2023-05-04T01:15:06.966Z,2.71
2023-05-04T01:17:34.042Z,2.67
2023-05-04T01:20:02.721Z,2.38
2023-05-04T01:22:30.433Z,2.19
2023-05-04T01:24:59.053Z,2.11
2023-05-04T01:27:36.635Z,2.25
2023-05-04T01:30:15.198Z,2.62
2023-05-04T01:32:44.253Z,2.59
2023-05-04T01:35:12.785Z,2.53
2023-05-04T01:37:46.423Z,2.40
2023-05-04T01:40:16.124Z,2.02
2023-05-04T01:42:45.500Z,1.88
2023-05-04T01:45:14.989Z,1.96
2023-05-04T01:47:42.459Z,1.91
2023-05-04T01:50:10.064Z,1.87
2023-05-04T01:52:37.286Z,1.77
2023-05-04T01:55:04.941Z,1.76
2023-05-04T01:57:32.249Z,2.02
2023-05-04T01:59:59.806Z,2.30
2023-05-04T02:02:27.202Z,2.30
2023-05-04T02:04:54.670Z,2.20
2023-05-04T02:07:22.035Z,2.12
2023-05-04T02:09:49.546Z,2.10
2023-05-04T02:12:18.128Z,1.77
2023-05-04T02:14:45.705Z,1.59
2023-05-04T02:17:12.840Z,1.58
2023-05-04T02:19:40.363Z,1.50
2023-05-04T02:22:07.837Z,1.30
2023-05-04T02:24:36.297Z,1.19
2023-05-04T02:27:04.793Z,1.43
2023-05-04T02:29:34.363Z,1.41
2023-05-04T02:32:01.963Z,1.50
2023-05-04T02:34:30.327Z,1.56
2023-05-04T02:36:57.796Z,1.36
2023-05-04T02:39:26.214Z,1.17
2023-05-04T02:41:53.677Z,1.03
2023-05-04T02:44:21.079Z,1.05
2023-05-04T02:46:49.578Z,1.09
2023-05-04T02:49:18.049Z,0.89
2023-05-04T02:51:47.683Z,1.20
2023-05-04T02:54:15.020Z,1.32
2023-05-04T02:56:42.465Z,1.05
2023-05-04T02:59:09.910Z,0.94
2023-05-04T03:01:37.428Z,0.74
2023-05-04T03:04:06.323Z,0.73
2023-05-04T03:06:34.155Z,0.59
2023-05-04T03:09:01.258Z,0.63
2023-05-04T03:11:28.716Z,0.60
2023-05-04T03:13:56.359Z,0.62
2023-05-04T03:16:24.825Z,0.73
2023-05-04T03:18:58.261Z,0.77
2023-05-04T03:21:25.602Z,0.82
2023-05-04T03:23:52.640Z,0.74
2023-05-04T03:26:20.152Z,0.90
2023-05-04T03:28:48.609Z,1.04
2023-05-04T03:31:16.095Z,1.16
2023-05-04T03:33:43.623Z,1.16
2023-05-04T03:36:12.010Z,0.98
2023-05-04T03:38:41.899Z,0.71
2023-05-04T03:41:11.539Z,0.74
2023-05-04T03:43:39.185Z,0.90
2023-05-04T03:46:13.413Z,0.94
2023-05-04T03:48:41.114Z,1.01
2023-05-04T03:51:08.625Z,0.96
2023-05-04T03:53:36.158Z,1.05
2023-05-04T03:56:03.991Z,0.97
2023-05-04T03:58:31.487Z,0.88
2023-05-04T04:00:58.828Z,0.89
2023-05-04T04:03:26.446Z,1.10
2023-05-04T04:05:54.780Z,1.12
2023-05-04T04:08:22.311Z,0.97
2023-05-04T04:10:49.708Z,1.13
2023-05-04T04:13:17.186Z,1.09
2023-05-04T04:15:45.919Z,1.06
2023-05-04T04:18:15.193Z,1.06
2023-05-04T04:20:42.760Z,1.20
2023-05-04T04:23:10.257Z,1.35
2023-05-04T04:25:38.169Z,1.40
2023-05-04T04:28:05.616Z,1.44
2023-05-04T04:30:33.061Z,1.56
2023-05-04T04:33:00.698Z,1.60
2023-05-04T04:35:29.014Z,1.93
2023-05-04T04:37:56.519Z,2.04
2023-05-04T04:40:23.989Z,2.28
2023-05-04T04:42:52.682Z,2.54
2023-05-04T04:45:20.830Z,2.68
2023-05-04T04:47:49.279Z,2.84
2023-05-04T04:50:16.385Z,3.07
2023-05-04T04:52:44.006Z,3.13
2023-05-04T04:55:13.669Z,3.31
2023-05-04T04:57:41.861Z,3.36
2023-05-04T05:00:14.679Z,3.41
2023-05-04T05:02:43.848Z,3.59
2023-05-04T05:05:13.319Z,3.80
2023-05-04T05:07:40.912Z,3.88
2023-05-04T05:10:15.193Z,3.99
2023-05-04T05:12:43.645Z,4.22
2023-05-04T05:15:11.149Z,4.33
2023-05-04T05:17:38.295Z,4.54
2023-05-04T05:20:16.140Z,4.72
2023-05-04T05:22:43.693Z,4.92
2023-05-04T05:25:11.174Z,5.04
2023-05-04T05:27:38.554Z,5.15
2023-05-04T05:30:07.617Z,5.27
2023-05-04T05:32:38.914Z,5.50
2023-05-04T05:35:06.862Z,5.72
2023-05-04T05:37:34.038Z,5.92
2023-05-04T05:40:14.372Z,6.11
2023-05-04T05:42:43.260Z,6.27
2023-05-04T05:45:11.209Z,6.39
2023-05-04T05:47:38.756Z,6.60
2023-05-04T05:50:08.145Z,6.70
2023-05-04T05:52:35.571Z,6.82
2023-05-04T05:55:03.231Z,6.90
2023-05-04T05:57:31.861Z,7.12
2023-05-04T05:59:59.052Z,7.24
2023-05-04T06:02:28.548Z,7.40
2023-05-04T06:04:56.023Z,7.50
2023-05-04T06:07:24.051Z,7.61
2023-05-04T06:09:51.673Z,7.75
2023-05-04T06:12:22.986Z,7.86
2023-05-04T06:14:50.407Z,7.99
2023-05-04T06:17:18.952Z,8.10
2023-05-04T06:19:48.073Z,8.18
2023-05-04T06:22:23.048Z,8.26
2023-05-04T06:24:50.182Z,8.47
2023-05-04T06:27:17.361Z,8.49
2023-05-04T06:29:44.780Z,8.58
2023-05-04T06:32:12.495Z,8.78
2023-05-04T06:34:39.676Z,8.94
2023-05-04T06:37:07.188Z,9.08
2023-05-04T06:39:34.743Z,9.19
2023-05-04T06:42:02.473Z,9.31
2023-05-04T06:44:29.721Z,9.50
2023-05-04T06:46:57.027Z,9.79
2023-05-04T06:49:24.518Z,9.99
2023-05-04T06:51:51.902Z,10.22
2023-05-04T06:54:19.401Z,10.29
2023-05-04T06:56:46.991Z,10.44
2023-05-04T06:59:14.323Z,10.60
2023-05-04T07:01:41.869Z,10.81
2023-05-04T07:04:09.423Z,10.89
2023-05-04T07:06:37.508Z,11.08
2023-05-04T07:09:10.394Z,11.29
2023-05-04T07:11:37.712Z,11.45
2023-05-04T07:14:05.243Z,11.63
2023-05-04T07:16:33.366Z,11.77
2023-05-04T07:19:07.352Z,11.95
2023-05-04T07:21:34.855Z,12.11
2023-05-04T07:24:02.209Z,12.14
2023-05-04T07:26:29.681Z,12.31
2023-05-04T07:28:57.107Z,12.46
2023-05-04T07:31:26.626Z,12.57
2023-05-04T07:33:55.582Z,12.69
2023-05-04T07:36:25.208Z,12.86
2023-05-04T07:38:52.770Z,13.03
2023-05-04T07:41:21.202Z,13.10
2023-05-04T07:43:48.588Z,13.18
2023-05-04T07:46:16.809Z,13.32
2023-05-04T07:48:44.464Z,13.51
2023-05-04T07:51:15.861Z,13.59
2023-05-04T07:53:44.136Z,13.72
2023-05-04T07:56:13.227Z,13.84
2023-05-04T07:58:40.802Z,13.81
2023-05-04T08:01:08.726Z,13.95
2023-05-04T08:03:36.851Z,14.03
2023-05-04T08:06:04.346Z,14.08
2023-05-04T08:08:31.916Z,14.26
2023-05-04T08:11:15.794Z,14.34
2023-05-04T08:13:48.149Z,14.54
2023-05-04T08:16:15.923Z,14.57
2023-05-04T08:18:43.830Z,14.64
2023-05-04T08:21:11.106Z,14.58
2023-05-04T08:23:38.962Z,14.63
2023-05-04T08:26:06.500Z,14.72
2023-05-04T08:28:40.687Z,14.82
2023-05-04T08:31:08.266Z,14.64
2023-05-04T08:33:35.571Z,14.67
2023-05-04T08:36:04.580Z,14.86
2023-05-04T08:38:39.161Z,14.95
2023-05-04T08:41:07.583Z,15.06
2023-05-04T08:43:36.792Z,15.30
2023-05-04T08:46:07.011Z,15.52
2023-05-04T08:48:35.196Z,15.60
2023-05-04T08:51:04.838Z,15.56
2023-05-04T08:53:33.074Z,15.61
2023-05-04T08:56:04.692Z,15.37
2023-05-04T08:58:38.242Z,15.34
2023-05-04T09:01:07.967Z,15.38
2023-05-04T09:03:35.877Z,15.67
2023-05-04T09:06:10.233Z,15.86
2023-05-04T09:08:38.042Z,16.01
2023-05-04T09:11:06.289Z,16.16
2023-05-04T09:13:36.956Z,16.25
2023-05-04T09:16:04.698Z,16.34
2023-05-04T09:18:43.218Z,16.50
2023-05-04T09:21:11.790Z,16.51
2023-05-04T09:23:51.918Z,16.81
2023-05-04T09:26:31.623Z,17.03
2023-05-04T09:29:16.001Z,17.03
2023-05-04T09:31:56.668Z,17.19
2023-05-04T09:34:24.058Z,17.34
2023-05-04T09:37:02.254Z,16.93
2023-05-04T09:39:30.798Z,16.99
2023-05-04T09:41:59.198Z,17.38
2023-05-04T09:44:29.902Z,17.77
2023-05-04T09:46:58.960Z,18.09
2023-05-04T09:49:37.315Z,18.39
2023-05-04T09:52:06.260Z,18.50
2023-05-04T09:54:36.480Z,18.57
2023-05-04T09:57:15.795Z,18.65
2023-05-04T09:59:44.183Z,18.72
2023-05-04T10:02:22.644Z,18.95
2023-05-04T10:04:57.606Z,19.04
2023-05-04T10:07:25.292Z,19.19
2023-05-04T10:09:54.209Z,19.34
2023-05-04T10:12:21.452Z,19.43
2023-05-04T10:14:48.920Z,19.39
2023-05-04T10:17:41.183Z,19.59
2023-05-04T10:20:27.330Z,18.97
2023-05-04T10:23:09.847Z,18.91
2023-05-04T10:26:16.114Z,19.49
2023-05-04T10:29:07.151Z,19.78
2023-05-04T10:31:53.887Z,20.21
2023-05-04T10:34:35.417Z,20.12
2023-05-04T10:37:04.458Z,20.33
2023-05-04T10:39:34.480Z,20.45
2023-05-04T10:42:05.281Z,20.49
2023-05-04T10:44:34.521Z,20.94
2023-05-04T10:47:09.239Z,21.12
2023-05-04T10:49:36.761Z,21.50
2023-05-04T10:52:18.300Z,21.19
2023-05-04T10:54:47.244Z,21.59
2023-05-04T10:57:17.908Z,21.86
2023-05-04T10:59:56.787Z,21.99
2023-05-04T11:02:25.397Z,22.34
2023-05-04T11:05:07.390Z,22.08
2023-05-04T11:07:39.494Z,22.24
2023-05-04T11:10:09.945Z,22.01
2023-05-04T11:12:38.455Z,22.30
2023-05-04T11:15:08.743Z,22.79
2023-05-04T11:17:52.040Z,22.72
2023-05-04T11:20:27.296Z,22.93
2023-05-04T11:22:55.599Z,23.23
2023-05-04T11:25:30.125Z,23.80
2023-05-04T11:28:00.157Z,24.00
2023-05-04T11:30:34.950Z,24.28
2023-05-04T11:33:05.004Z,24.51
2023-05-04T11:35:39.011Z,24.73
2023-05-04T11:38:07.749Z,24.84
2023-05-04T11:40:41.213Z,24.97
2023-05-04T11:43:11.603Z,25.17
2023-05-04T11:45:41.224Z,25.08
2023-05-04T11:48:09.611Z,24.83
2023-05-04T11:50:38.226Z,24.35
2023-05-04T11:53:11.763Z,24.30
2023-05-04T11:55:39.261Z,24.62
2023-05-04T11:58:13.061Z,24.84
2023-05-04T12:00:47.451Z,25.11
2023-05-04T12:03:17.410Z,24.82
2023-05-04T12:05:50.965Z,24.87
2023-05-04T12:08:42.541Z,24.84
2023-05-04T12:11:16.761Z,25.11
2023-05-04T12:13:46.044Z,25.69
2023-05-04T12:16:18.442Z,26.03
2023-05-04T12:18:47.029Z,26.13
2023-05-04T12:21:15.468Z,26.02
2023-05-04T12:23:43.036Z,26.09
2023-05-04T12:26:12.249Z,26.45
2023-05-04T12:28:43.038Z,26.75
2023-05-04T12:31:10.467Z,26.94
2023-05-04T12:33:37.702Z,26.38
2023-05-04T12:36:12.825Z,26.70
2023-05-04T12:38:40.300Z,26.87
2023-05-04T12:41:11.129Z,27.07
2023-05-04T12:43:38.618Z,27.34
2023-05-04T12:46:07.835Z,27.44
2023-05-04T12:48:35.462Z,27.42
2023-05-04T12:51:04.799Z,27.56
2023-05-04T12:53:32.607Z,27.90
2023-05-04T12:56:01.738Z,28.21
2023-05-04T12:58:29.277Z,28.69
2023-05-04T13:00:58.153Z,28.82
2023-05-04T13:03:25.832Z,28.42
2023-05-04T13:06:06.210Z,27.56
2023-05-04T13:08:33.887Z,26.76
2023-05-04T13:11:02.502Z,26.74
2023-05-04T13:13:30.028Z,27.21
2023-05-04T13:15:57.674Z,27.75
2023-05-04T13:18:28.061Z,27.57
2023-05-04T13:20:56.304Z,27.26
2023-05-04T13:23:24.188Z,27.45
2023-05-04T13:25:52.342Z,27.49
2023-05-04T13:28:19.861Z,28.13
2023-05-04T13:30:47.191Z,28.44
2023-05-04T13:33:28.039Z,28.19
2023-05-04T13:35:58.540Z,28.18
2023-05-04T13:38:27.489Z,27.94
2023-05-04T13:40:56.392Z,28.34
2023-05-04T13:43:24.085Z,28.12
2023-05-04T13:45:51.715Z,28.48
2023-05-04T13:48:18.754Z,28.46
2023-05-04T13:50:46.389Z,28.40
2023-05-04T13:53:14.805Z,28.48
2023-05-04T13:55:42.142Z,28.68
2023-05-04T13:58:15.847Z,28.50
2023-05-04T14:00:48.944Z,28.37
2023-05-04T14:03:23.139Z,28.49
2023-05-04T14:05:51.874Z,28.34
2023-05-04T14:08:19.459Z,28.53
2023-05-04T14:10:47.192Z,28.61
2023-05-04T14:13:17.208Z,28.89
2023-05-04T14:15:45.615Z,29.07
2023-05-04T14:18:19.139Z,28.73
2023-05-04T14:20:48.951Z,28.90
2023-05-04T14:23:16.616Z,28.99
2023-05-04T14:25:50.732Z,29.08
2023-05-04T14:28:19.281Z,29.43
2023-05-04T14:30:46.607Z,29.01
2023-05-04T14:33:14.042Z,28.86
2023-05-04T14:35:44.687Z,28.91
2023-05-04T14:38:13.610Z,29.07
2023-05-04T14:40:40.860Z,28.02
2023-05-04T14:43:08.481Z,27.90
2023-05-04T14:45:35.867Z,27.98
2023-05-04T14:48:03.421Z,28.11
2023-05-04T14:50:30.742Z,27.93
2023-05-04T14:52:58.278Z,28.12
2023-05-04T14:55:25.741Z,27.97
2023-05-04T14:57:53.211Z,28.25
2023-05-04T15:00:20.831Z,28.24
2023-05-04T15:02:48.171Z,28.24
2023-05-04T15:05:21.587Z,28.17
2023-05-04T15:07:49.091Z,28.16
2023-05-04T15:10:16.661Z,28.14
2023-05-04T15:12:44.023Z,28.02
2023-05-04T15:15:13.059Z,27.85
2023-05-04T15:17:40.223Z,27.85
2023-05-04T15:20:12.033Z,27.73
2023-05-04T15:22:40.372Z,27.42
2023-05-04T15:25:09.149Z,27.18
2023-05-04T15:27:37.320Z,27.09
2023-05-04T15:30:05.212Z,27.23
2023-05-04T15:32:33.650Z,27.15
2023-05-04T15:35:05.434Z,27.02
2023-05-04T15:37:33.807Z,26.76
2023-05-04T15:40:02.531Z,26.72
2023-05-04T15:42:30.589Z,26.62
2023-05-04T15:44:58.193Z,26.47
2023-05-04T15:47:25.706Z,26.42
2023-05-04T15:49:53.133Z,26.17
2023-05-04T15:52:21.556Z,25.96
2023-05-04T15:54:50.142Z,25.97
2023-05-04T15:57:19.469Z,25.91
2023-05-04T15:59:49.943Z,25.91
2023-05-04T16:02:17.727Z,25.87
2023-05-04T16:05:04.704Z,25.76
2023-05-04T16:07:36.782Z,25.50
2023-05-04T16:10:07.171Z,25.33
2023-05-04T16:12:34.650Z,25.02
2023-05-04T16:15:02.005Z,24.88
2023-05-04T16:17:30.883Z,24.70
2023-05-04T16:19:58.347Z,24.62
2023-05-04T16:22:26.800Z,24.39
2023-05-04T16:24:54.397Z,24.00
2023-05-04T16:27:24.369Z,23.91
2023-05-04T16:29:51.840Z,23.86
2023-05-04T16:32:20.752Z,23.68
2023-05-04T16:34:50.340Z,23.64
2023-05-04T16:37:24.400Z,23.59
2023-05-04T16:39:51.921Z,23.56
2023-05-04T16:42:21.519Z,23.38
2023-05-04T16:44:49.320Z,23.18
2023-05-04T16:47:16.817Z,23.06
2023-05-04T16:49:44.456Z,22.96
2023-05-04T16:52:11.729Z,22.83
2023-05-04T16:54:39.204Z,22.68
2023-05-04T16:57:06.750Z,22.55
2023-05-04T16:59:34.178Z,22.44
2023-05-04T17:02:01.620Z,22.32
2023-05-04T17:04:31.430Z,22.26
2023-05-04T17:06:58.515Z,22.20
2023-05-04T17:09:25.681Z,22.15
2023-05-04T17:11:59.048Z,22.02
2023-05-04T17:14:26.653Z,21.94
2023-05-04T17:16:54.418Z,21.82
2023-05-04T17:19:21.603Z,21.76
2023-05-04T17:21:54.482Z,21.61
2023-05-04T17:24:22.558Z,21.54
2023-05-04T17:26:52.037Z,21.40
2023-05-04T17:29:19.504Z,21.33
2023-05-04T17:31:46.948Z,21.27
2023-05-04T17:34:14.404Z,21.07
2023-05-04T17:36:41.833Z,20.85
2023-05-04T17:39:09.299Z,20.48
2023-05-04T17:41:36.847Z,20.13
2023-05-04T17:44:06.353Z,19.90
2023-05-04T17:46:34.931Z,19.66
2023-05-04T17:49:03.318Z,19.40
2023-05-04T17:51:36.610Z,19.08
2023-05-04T17:54:04.093Z,18.94
2023-05-04T17:56:31.322Z,18.79
2023-05-04T17:59:00.790Z,18.66
2023-05-04T18:01:28.385Z,18.60
2023-05-04T18:03:55.860Z,18.55
2023-05-04T18:06:23.351Z,18.41
2023-05-04T18:08:50.710Z,18.40
2023-05-04T18:11:19.127Z,18.31
2023-05-04T18:13:46.513Z,18.27
2023-05-04T18:16:13.851Z,18.20
2023-05-04T18:18:41.452Z,17.98
2023-05-04T18:21:09.249Z,17.74
2023-05-04T18:23:36.786Z,17.60
2023-05-04T18:26:04.384Z,17.42
2023-05-04T18:28:32.502Z,17.17
2023-05-04T18:31:02.190Z,16.86
2023-05-04T18:33:31.670Z,16.79
2023-05-04T18:36:09.390Z,16.54
2023-05-04T18:38:38.333Z,16.30
2023-05-04T18:41:12.271Z,16.23
2023-05-04T18:43:42.134Z,16.15
2023-05-04T18:46:11.101Z,16.11
2023-05-04T18:48:39.646Z,15.95
2023-05-04T18:51:08.841Z,15.77
2023-05-04T18:53:36.490Z,15.66
2023-05-04T18:56:06.660Z,15.62
2023-05-04T18:58:36.327Z,15.02
2023-05-04T19:01:05.673Z,14.74
2023-05-04T19:03:34.012Z,14.46
2023-05-04T19:06:03.595Z,14.15
2023-05-04T19:08:31.072Z,14.12
2023-05-04T19:10:59.625Z,13.90
2023-05-04T19:13:27.392Z,13.86
2023-05-04T19:15:54.556Z,14.15
2023-05-04T19:18:28.220Z,14.19
2023-05-04T19:21:06.469Z,13.96
2023-05-04T19:23:33.695Z,13.89
2023-05-04T19:26:01.502Z,13.61
2023-05-04T19:28:28.714Z,13.48
2023-05-04T19:30:56.211Z,13.47
2023-05-04T19:33:28.160Z,13.50
2023-05-04T19:36:04.556Z,13.47
2023-05-04T19:38:31.867Z,13.45
2023-05-04T19:41:00.363Z,13.49
2023-05-04T19:43:33.947Z,13.44
2023-05-04T19:46:04.427Z,13.52
2023-05-04T19:48:32.121Z,13.48
2023-05-04T19:51:00.401Z,13.24
2023-05-04T19:53:27.762Z,12.54
2023-05-04T19:55:55.701Z,12.28
2023-05-04T19:58:28.615Z,12.22
2023-05-04T20:00:55.881Z,11.95
2023-05-04T20:03:23.347Z,12.03
2023-05-04T20:05:55.846Z,11.67
2023-05-04T20:08:23.332Z,11.64
2023-05-04T20:10:57.971Z,11.46
2023-05-04T20:13:25.953Z,11.60
2023-05-04T20:15:53.395Z,11.69
2023-05-04T20:18:20.863Z,12.16
2023-05-04T20:20:48.235Z,12.16
2023-05-04T20:23:15.849Z,11.94
2023-05-04T20:25:43.204Z,11.52
2023-05-04T20:28:10.952Z,11.45
2023-05-04T20:30:38.102Z,11.60
2023-05-04T20:33:06.678Z,11.70
2023-05-04T20:35:44.560Z,11.83
2023-05-04T20:38:17.890Z,11.96
2023-05-04T20:40:46.367Z,11.99
2023-05-04T20:43:15.118Z,12.01
2023-05-04T20:45:42.360Z,12.05
2023-05-04T20:48:09.803Z,12.10
2023-05-04T20:50:37.252Z,12.07
2023-05-04T20:53:04.649Z,12.13
2023-05-04T20:55:32.259Z,11.98
2023-05-04T20:57:59.552Z,11.83
2023-05-04T21:00:29.197Z,11.61
2023-05-04T21:02:56.637Z,11.76
2023-05-04T21:05:23.997Z,11.81
2023-05-04T21:07:52.796Z,11.88
2023-05-04T21:10:20.365Z,11.92
2023-05-04T21:12:47.956Z,11.98
2023-05-04T21:15:17.851Z,12.00
2023-05-04T21:17:53.521Z,12.00
2023-05-04T21:20:22.331Z,12.05
2023-05-04T21:22:52.001Z,12.05
2023-05-04T21:25:19.624Z,11.95
2023-05-04T21:27:47.997Z,12.02
2023-05-04T21:30:16.648Z,12.07
2023-05-04T21:32:44.018Z,12.02
2023-05-04T21:35:11.563Z,12.09
2023-05-04T21:37:38.822Z,12.16
2023-05-04T21:40:09.246Z,12.25
2023-05-04T21:42:36.791Z,12.31
2023-05-04T21:45:04.608Z,12.36
2023-05-04T21:47:32.732Z,12.40
2023-05-04T21:50:01.249Z,12.38
2023-05-04T21:52:28.693Z,12.49
2023-05-04T21:54:56.169Z,12.45
2023-05-04T21:57:25.648Z,12.53
2023-05-04T21:59:53.130Z,12.61
2023-05-04T22:02:20.703Z,12.59
2023-05-04T22:04:48.168Z,12.56
2023-05-04T22:07:16.009Z,12.52
2023-05-04T22:09:43.468Z,12.51
2023-05-04T22:12:12.051Z,12.46
2023-05-04T22:14:42.581Z,12.59
2023-05-04T22:17:09.930Z,12.59
2023-05-04T22:19:38.664Z,12.61
2023-05-04T22:22:05.847Z,12.54
2023-05-04T22:24:33.271Z,12.57
2023-05-04T22:27:00.773Z,12.55
2023-05-04T22:29:28.162Z,12.48
2023-05-04T22:31:56.171Z,12.44
2023-05-04T22:34:23.665Z,12.36
2023-05-04T22:36:51.136Z,12.30
2023-05-04T22:39:18.553Z,12.28
2023-05-04T22:41:46.090Z,12.33
2023-05-04T22:44:13.442Z,12.35
2023-05-04T22:46:40.996Z,12.30
2023-05-04T22:49:09.383Z,12.22
2023-05-04T22:51:38.328Z,12.27
2023-05-04T22:54:05.975Z,12.18
2023-05-04T22:56:33.475Z,12.10
2023-05-04T22:59:00.793Z,12.01
2023-05-04T23:01:30.375Z,11.93
2023-05-04T23:03:58.901Z,11.80
2023-05-04T23:06:26.207Z,11.70
2023-05-04T23:08:55.664Z,11.71
2023-05-04T23:11:24.213Z,11.69
2023-05-04T23:13:51.718Z,11.64
2023-05-04T23:16:18.979Z,11.62
2023-05-04T23:18:49.114Z,11.57
2023-05-04T23:21:16.537Z,11.42
2023-05-04T23:23:44.124Z,11.37
2023-05-04T23:26:12.662Z,11.36
2023-05-04T23:28:39.996Z,11.29
2023-05-04T23:31:07.492Z,11.27
2023-05-04T23:33:34.930Z,11.27
2023-05-04T23:36:02.333Z,11.20
2023-05-04T23:38:29.802Z,11.12
2023-05-04T23:40:57.307Z,11.00
2023-05-04T23:43:24.886Z,11.01
2023-05-04T23:46:02.679Z,10.94
2023-05-04T23:48:33.065Z,10.83
2023-05-04T23:51:04.868Z,10.84
2023-05-04T23:53:33.957Z,10.76
2023-05-04T23:56:05.347Z,10.67
2023-05-04T23:58:34.807Z,10.69
